createdAt,value
2022-10-09T00:01:46.443Z,12.43
2022-10-09T00:04:15.214Z,12.48
2022-10-09T00:06:45.399Z,12.38
2022-10-09T00:09:14.519Z,12.47
2022-10-09T00:11:42.876Z,12.42
2022-10-09T00:14:11.656Z,12.44
2022-10-09T00:16:40.141Z,12.36
2022-10-09T00:19:08.914Z,12.30
2022-10-09T00:21:37.796Z,12.36
2022-10-09T00:24:07.969Z,12.34
2022-10-09T00:26:36.672Z,12.29
2022-10-09T00:29:05.992Z,12.03
2022-10-09T00:31:34.629Z,12.22
2022-10-09T00:34:03.384Z,12.17
2022-10-09T00:36:32.147Z,12.12
2022-10-09T00:39:00.882Z,12.10
2022-10-09T00:41:34.290Z,12.09
2022-10-09T00:44:04.021Z,12.04
2022-10-09T00:46:46.443Z,12.05
2022-10-09T00:49:19.037Z,12.06
2022-10-09T00:51:49.413Z,12.04
2022-10-09T00:54:20.337Z,11.99
2022-10-09T00:56:50.884Z,12.00
2022-10-09T00:59:19.963Z,12.03
2022-10-09T01:01:49.275Z,12.03
2022-10-09T01:04:18.411Z,11.96
2022-10-09T01:06:57.944Z,11.88
2022-10-09T01:09:34.049Z,11.82
2022-10-09T01:12:08.953Z,11.79
2022-10-09T01:14:40.982Z,11.68
2022-10-09T01:17:14.150Z,11.54
2022-10-09T01:20:04.495Z,11.49
2022-10-09T01:22:40.983Z,11.49
2022-10-09T01:25:10.640Z,11.47
2022-10-09T01:27:42.181Z,11.36
2022-10-09T01:30:13.369Z,11.31
2022-10-09T01:32:46.157Z,11.28
2022-10-09T01:35:16.308Z,11.28
2022-10-09T01:37:46.263Z,11.20
2022-10-09T01:40:17.264Z,11.23
2022-10-09T01:42:48.385Z,11.22
2022-10-09T01:45:17.541Z,11.18
2022-10-09T01:47:46.706Z,11.15
2022-10-09T01:50:19.714Z,11.09
2022-10-09T01:52:51.739Z,10.96
2022-10-09T01:55:34.714Z,10.97
2022-10-09T01:58:08.693Z,10.85
2022-10-09T02:00:39.354Z,10.75
2022-10-09T02:03:10.624Z,10.64
2022-10-09T02:05:41.024Z,10.71
2022-10-09T02:08:10.496Z,10.67
2022-10-09T02:10:39.068Z,10.67
2022-10-09T02:13:09.426Z,10.63
2022-10-09T02:15:42.879Z,10.61
2022-10-09T02:18:14.647Z,10.58
2022-10-09T02:20:47.326Z,10.56
2022-10-09T02:23:19.102Z,10.57
2022-10-09T02:25:47.807Z,10.58
2022-10-09T02:28:17.654Z,10.62
2022-10-09T02:30:49.212Z,10.65
2022-10-09T02:33:18.022Z,10.62
2022-10-09T02:35:47.657Z,10.57
2022-10-09T02:38:16.051Z,10.51
2022-10-09T02:40:47.409Z,10.52
2022-10-09T02:43:17.898Z,10.47
2022-10-09T02:45:46.446Z,10.47
2022-10-09T02:48:14.858Z,10.44
2022-10-09T02:50:43.694Z,10.45
2022-10-09T02:53:12.363Z,10.38
2022-10-09T02:55:40.614Z,10.37
2022-10-09T02:58:12.165Z,10.33
2022-10-09T03:00:42.071Z,10.15
2022-10-09T03:03:10.620Z,10.24
2022-10-09T03:05:39.066Z,10.20
2022-10-09T03:08:08.007Z,10.22
2022-10-09T03:10:38.757Z,10.23
2022-10-09T03:13:07.479Z,10.21
2022-10-09T03:15:36.311Z,10.14
2022-10-09T03:18:07.095Z,10.15
2022-10-09T03:20:35.508Z,10.13
2022-10-09T03:23:03.968Z,10.03
2022-10-09T03:25:32.700Z,9.95
2022-10-09T03:28:01.278Z,9.99
2022-10-09T03:30:30.375Z,9.99
2022-10-09T03:32:59.137Z,10.01
2022-10-09T03:35:29.299Z,9.94
2022-10-09T03:37:57.810Z,9.86
2022-10-09T03:40:26.432Z,9.83
2022-10-09T03:42:54.791Z,9.80
2022-10-09T03:45:23.771Z,9.73
2022-10-09T03:47:52.746Z,9.67
2022-10-09T03:50:21.193Z,9.63
2022-10-09T03:52:51.367Z,9.58
2022-10-09T03:55:20.209Z,9.52
2022-10-09T03:57:48.904Z,9.49
2022-10-09T04:00:17.858Z,9.33
2022-10-09T04:02:46.566Z,9.36
2022-10-09T04:05:16.099Z,9.32
2022-10-09T04:07:44.829Z,9.20
2022-10-09T04:10:15.201Z,9.13
2022-10-09T04:12:43.946Z,9.08
2022-10-09T04:15:12.908Z,8.96
2022-10-09T04:17:41.706Z,8.89
2022-10-09T04:20:11.129Z,8.87
2022-10-09T04:22:39.820Z,8.70
2022-10-09T04:25:09.467Z,8.71
2022-10-09T04:27:39.605Z,8.75
2022-10-09T04:30:09.773Z,8.71
2022-10-09T04:32:38.466Z,8.63
2022-10-09T04:35:08.250Z,8.57
2022-10-09T04:37:36.928Z,8.54
2022-10-09T04:40:06.281Z,8.49
2022-10-09T04:42:35.209Z,8.42
2022-10-09T04:45:05.597Z,8.30
2022-10-09T04:47:35.248Z,8.31
2022-10-09T04:50:04.685Z,8.22
2022-10-09T04:52:33.079Z,8.17
2022-10-09T04:55:01.953Z,8.05
2022-10-09T04:57:30.571Z,8.03
2022-10-09T04:59:59.552Z,7.95
2022-10-09T05:02:30.274Z,7.95
2022-10-09T05:04:59.310Z,7.92
2022-10-09T05:07:28.341Z,7.84
2022-10-09T05:09:57.587Z,7.86
2022-10-09T05:12:29.070Z,7.87
2022-10-09T05:14:58.760Z,7.90
2022-10-09T05:17:34.809Z,7.93
2022-10-09T05:20:04.208Z,7.95
2022-10-09T05:22:32.973Z,8.01
2022-10-09T05:25:01.715Z,8.00
2022-10-09T05:27:30.204Z,7.99
2022-10-09T05:29:59.031Z,8.01
2022-10-09T05:32:27.436Z,8.05
2022-10-09T05:34:57.585Z,8.05
2022-10-09T05:37:26.423Z,8.09
2022-10-09T05:39:55.142Z,8.17
2022-10-09T05:42:23.894Z,8.23
2022-10-09T05:44:52.365Z,8.34
2022-10-09T05:47:20.521Z,8.37
2022-10-09T05:49:48.956Z,8.38
2022-10-09T05:52:19.617Z,8.35
2022-10-09T05:54:48.256Z,8.40
2022-10-09T05:57:16.417Z,8.38
2022-10-09T05:59:45.014Z,8.45
2022-10-09T06:02:14.739Z,8.46
2022-10-09T06:04:44.326Z,8.66
2022-10-09T06:07:12.858Z,8.75
2022-10-09T06:09:42.736Z,8.86
2022-10-09T06:12:11.643Z,8.93
2022-10-09T06:14:40.148Z,8.99
2022-10-09T06:17:08.272Z,9.09
2022-10-09T06:19:36.874Z,9.16
2022-10-09T06:22:05.705Z,9.27
2022-10-09T06:24:34.212Z,9.33
2022-10-09T06:27:06.036Z,9.50
2022-10-09T06:29:34.795Z,9.68
2022-10-09T06:32:03.832Z,9.76
2022-10-09T06:34:32.662Z,9.78
2022-10-09T06:37:00.983Z,9.86
2022-10-09T06:39:29.999Z,9.98
2022-10-09T06:41:58.668Z,10.14
2022-10-09T06:44:28.556Z,10.29
2022-10-09T06:46:56.970Z,10.37
2022-10-09T06:49:26.001Z,10.38
2022-10-09T06:51:55.000Z,10.41
2022-10-09T06:54:23.540Z,10.60
2022-10-09T06:56:52.502Z,10.71
2022-10-09T06:59:20.841Z,10.92
2022-10-09T07:01:51.158Z,11.02
2022-10-09T07:04:20.305Z,11.16
2022-10-09T07:06:50.749Z,11.29
2022-10-09T07:09:20.457Z,11.42
2022-10-09T07:11:50.494Z,11.53
2022-10-09T07:14:20.223Z,11.58
2022-10-09T07:16:51.014Z,11.64
2022-10-09T07:19:19.884Z,11.73
2022-10-09T07:21:51.069Z,11.83
2022-10-09T07:24:21.589Z,11.79
2022-10-09T07:26:51.191Z,11.93
2022-10-09T07:29:21.238Z,11.96
2022-10-09T07:31:53.316Z,12.10
2022-10-09T07:34:22.029Z,12.17
2022-10-09T07:36:50.712Z,12.08
2022-10-09T07:39:20.302Z,12.30
2022-10-09T07:41:51.724Z,12.34
2022-10-09T07:44:20.351Z,12.36
2022-10-09T07:46:53.070Z,12.51
2022-10-09T07:49:22.306Z,12.58
2022-10-09T07:51:50.944Z,12.79
2022-10-09T07:54:19.452Z,13.01
2022-10-09T07:56:48.348Z,13.32
2022-10-09T07:59:17.959Z,13.50
2022-10-09T08:01:48.998Z,13.48
2022-10-09T08:04:19.447Z,13.41
2022-10-09T08:06:50.117Z,13.37
2022-10-09T08:09:21.559Z,13.50
2022-10-09T08:11:50.446Z,13.54
2022-10-09T08:14:19.573Z,13.64
2022-10-09T08:16:49.168Z,14.05
2022-10-09T08:19:19.171Z,14.24
2022-10-09T08:21:48.259Z,14.14
2022-10-09T08:24:16.790Z,14.09
2022-10-09T08:26:45.696Z,14.37
2022-10-09T08:29:16.686Z,14.10
2022-10-09T08:31:45.705Z,14.12
2022-10-09T08:34:14.372Z,14.24
2022-10-09T08:36:45.168Z,14.75
2022-10-09T08:39:14.008Z,15.03
2022-10-09T08:41:48.406Z,14.93
2022-10-09T08:44:19.996Z,15.37
2022-10-09T08:47:00.942Z,17.21
2022-10-09T08:49:34.525Z,18.18
2022-10-09T08:52:16.744Z,18.62
2022-10-09T08:54:45.073Z,19.13
2022-10-09T08:57:15.878Z,18.23
2022-10-09T08:59:44.668Z,18.65
2022-10-09T09:02:28.962Z,17.89
2022-10-09T09:05:05.451Z,18.15
2022-10-09T09:07:41.731Z,18.74
2022-10-09T09:10:15.108Z,18.98
2022-10-09T09:12:50.103Z,19.39
2022-10-09T09:15:37.009Z,19.22
2022-10-09T09:18:21.398Z,19.09
2022-10-09T09:20:54.674Z,18.27
2022-10-09T09:27:31.824Z,18.71
2022-10-09T09:30:04.298Z,19.72
2022-10-09T09:32:33.715Z,20.52
2022-10-09T09:35:10.795Z,20.27
2022-10-09T09:37:39.863Z,19.16
2022-10-09T09:40:36.706Z,19.19
2022-10-09T09:43:08.509Z,18.78
2022-10-09T09:45:36.788Z,18.23
2022-10-09T09:48:08.504Z,17.74
2022-10-09T09:50:53.103Z,17.77
2022-10-09T09:53:33.875Z,17.15
2022-10-09T09:56:02.360Z,17.28
2022-10-09T09:58:35.624Z,17.77
2022-10-09T10:01:06.600Z,18.01
2022-10-09T10:03:36.058Z,17.88
2022-10-09T10:06:04.754Z,17.90
2022-10-09T10:08:34.837Z,18.49
2022-10-09T10:11:07.216Z,19.14
2022-10-09T10:13:39.926Z,19.51
2022-10-09T10:16:10.227Z,20.19
2022-10-09T10:18:41.199Z,20.21
2022-10-09T10:21:13.674Z,19.77
2022-10-09T10:23:45.831Z,20.64
2022-10-09T10:26:23.256Z,20.58
2022-10-09T10:28:56.541Z,19.38
2022-10-09T10:31:36.636Z,20.99
2022-10-09T10:34:06.490Z,21.76
2022-10-09T10:36:35.628Z,22.45
2022-10-09T10:39:09.804Z,23.44
2022-10-09T10:41:42.946Z,24.58
2022-10-09T10:44:20.866Z,25.93
2022-10-09T10:46:54.723Z,26.19
2022-10-09T10:49:33.819Z,25.41
2022-10-09T10:52:18.193Z,26.54
2022-10-09T10:54:57.870Z,23.52
2022-10-09T10:57:32.390Z,24.27
2022-10-09T11:00:06.558Z,25.21
2022-10-09T11:02:59.676Z,25.10
2022-10-09T11:05:47.065Z,25.80
2022-10-09T11:08:30.405Z,25.49
2022-10-09T11:11:06.454Z,24.42
2022-10-09T11:13:36.250Z,23.12
2022-10-09T11:16:21.803Z,22.60
2022-10-09T11:19:04.234Z,21.83
2022-10-09T11:21:42.943Z,21.63
2022-10-09T11:24:24.128Z,20.61
2022-10-09T11:27:03.138Z,20.81
2022-10-09T11:29:36.350Z,20.73
2022-10-09T11:32:13.896Z,21.03
2022-10-09T11:34:46.353Z,20.15
2022-10-09T11:37:18.499Z,20.66
2022-10-09T11:39:47.344Z,20.50
2022-10-09T11:42:20.010Z,20.69
2022-10-09T11:45:03.247Z,20.70
2022-10-09T11:47:39.697Z,20.95
2022-10-09T11:50:24.803Z,20.80
2022-10-09T11:52:59.069Z,20.71
2022-10-09T11:55:29.226Z,20.85
2022-10-09T11:58:09.422Z,21.06
2022-10-09T12:00:38.625Z,21.04
2022-10-09T12:03:09.413Z,20.92
2022-10-09T12:05:42.980Z,20.92
2022-10-09T12:08:18.309Z,20.60
2022-10-09T12:10:52.620Z,20.32
2022-10-09T12:13:42.312Z,20.39
2022-10-09T12:16:12.715Z,20.47
2022-10-09T12:18:46.712Z,20.78
2022-10-09T12:21:23.640Z,20.66
2022-10-09T12:23:52.812Z,21.06
2022-10-09T12:26:23.116Z,21.64
2022-10-09T12:28:53.458Z,21.48
2022-10-09T12:31:25.845Z,21.66
2022-10-09T12:33:58.491Z,21.76
2022-10-09T12:36:28.565Z,21.85
2022-10-09T12:38:57.151Z,22.09
2022-10-09T12:41:27.750Z,21.65
2022-10-09T12:43:57.363Z,21.40
2022-10-09T12:46:32.050Z,21.18
2022-10-09T12:49:09.879Z,20.86
2022-10-09T12:51:38.351Z,20.23
2022-10-09T12:54:09.876Z,19.25
2022-10-09T12:56:39.807Z,18.94
2022-10-09T12:59:09.193Z,18.75
2022-10-09T13:01:37.728Z,18.68
2022-10-09T13:04:09.743Z,18.59
2022-10-09T13:06:44.208Z,18.47
2022-10-09T13:09:24.781Z,18.77
2022-10-09T13:11:55.926Z,18.76
2022-10-09T13:14:34.606Z,18.59
2022-10-09T13:17:03.820Z,18.08
2022-10-09T13:19:37.451Z,18.40
2022-10-09T13:22:21.242Z,18.59
2022-10-09T13:24:53.129Z,19.07
2022-10-09T13:27:21.612Z,19.56
2022-10-09T13:29:50.121Z,19.64
2022-10-09T13:32:19.178Z,19.94
2022-10-09T13:34:48.943Z,19.93
2022-10-09T13:37:20.321Z,20.00
2022-10-09T13:39:48.994Z,19.15
2022-10-09T13:42:17.966Z,18.61
2022-10-09T13:44:46.562Z,18.43
2022-10-09T13:47:15.359Z,18.38
2022-10-09T13:49:44.241Z,18.55
2022-10-09T13:52:13.935Z,18.54
2022-10-09T13:54:42.512Z,18.59
2022-10-09T13:57:10.963Z,18.71
2022-10-09T13:59:39.637Z,18.84
2022-10-09T14:02:08.204Z,19.50
2022-10-09T14:04:37.141Z,20.09
2022-10-09T14:07:05.820Z,20.79
2022-10-09T14:09:35.601Z,21.44
2022-10-09T14:12:03.924Z,21.88
2022-10-09T14:14:32.164Z,22.26
2022-10-09T14:17:00.767Z,22.44
2022-10-09T14:19:28.951Z,22.55
2022-10-09T14:21:57.480Z,22.79
2022-10-09T14:24:26.653Z,22.98
2022-10-09T14:26:56.708Z,23.30
2022-10-09T14:29:25.414Z,23.61
2022-10-09T14:31:53.948Z,24.24
2022-10-09T14:34:22.164Z,24.04
2022-10-09T14:36:50.780Z,24.12
2022-10-09T14:39:19.378Z,24.40
2022-10-09T14:41:48.520Z,24.43
2022-10-09T14:44:18.426Z,24.11
2022-10-09T14:46:47.052Z,23.85
2022-10-09T14:49:16.239Z,23.31
2022-10-09T14:51:44.664Z,23.87
2022-10-09T14:54:14.907Z,24.06
2022-10-09T14:56:43.397Z,23.65
2022-10-09T14:59:11.927Z,23.19
2022-10-09T15:01:42.558Z,22.43
2022-10-09T15:04:11.536Z,21.82
2022-10-09T15:06:41.330Z,20.78
2022-10-09T15:09:09.820Z,20.05
2022-10-09T15:11:38.399Z,19.51
2022-10-09T15:14:07.894Z,18.99
2022-10-09T15:16:36.466Z,18.55
2022-10-09T15:19:07.085Z,18.02
2022-10-09T15:21:37.059Z,17.77
2022-10-09T15:24:06.666Z,17.46
2022-10-09T15:26:37.111Z,16.88
2022-10-09T15:29:08.251Z,16.11
2022-10-09T15:31:39.788Z,15.81
2022-10-09T15:34:11.200Z,15.73
2022-10-09T15:36:43.286Z,15.60
2022-10-09T15:39:11.940Z,15.28
2022-10-09T15:41:42.754Z,15.22
2022-10-09T15:44:17.708Z,15.17
2022-10-09T15:47:50.413Z,15.01
2022-10-09T15:50:21.698Z,14.81
2022-10-09T15:52:50.671Z,14.58
2022-10-09T15:55:19.471Z,14.45
2022-10-09T15:57:47.903Z,14.21
2022-10-09T16:00:17.049Z,13.93
2022-10-09T16:02:46.730Z,13.85
2022-10-09T16:05:16.155Z,13.71
2022-10-09T16:07:46.444Z,13.58
2022-10-09T16:10:15.075Z,13.47
2022-10-09T16:12:45.726Z,13.27
2022-10-09T16:15:14.519Z,13.15
2022-10-09T16:17:43.112Z,13.06
2022-10-09T16:20:11.818Z,12.93
2022-10-09T16:22:40.609Z,12.75
2022-10-09T16:25:11.619Z,12.47
2022-10-09T16:27:40.288Z,12.33
2022-10-09T16:30:12.238Z,12.10
2022-10-09T16:32:40.855Z,11.87
2022-10-09T16:35:10.916Z,11.76
2022-10-09T16:37:40.074Z,11.69
2022-10-09T16:40:11.663Z,11.68
2022-10-09T16:42:40.497Z,11.68
2022-10-09T16:45:10.948Z,11.59
2022-10-09T16:47:43.009Z,11.45
2022-10-09T16:50:12.919Z,11.40
2022-10-09T16:52:42.562Z,11.33
2022-10-09T16:55:12.645Z,11.28
2022-10-09T16:57:41.315Z,11.11
2022-10-09T17:00:12.448Z,11.18
2022-10-09T17:02:41.057Z,11.12
2022-10-09T17:05:11.299Z,11.08
2022-10-09T17:07:41.450Z,11.03
2022-10-09T17:10:12.483Z,10.99
2022-10-09T17:12:48.477Z,10.94
2022-10-09T17:15:17.412Z,10.91
2022-10-09T17:17:46.834Z,10.80
2022-10-09T17:20:16.022Z,10.74
2022-10-09T17:22:45.049Z,10.71
2022-10-09T17:25:15.769Z,10.64
2022-10-09T17:27:45.008Z,10.56
2022-10-09T17:30:14.450Z,10.46
2022-10-09T17:32:43.544Z,10.33
2022-10-09T17:35:12.467Z,10.27
2022-10-09T17:37:42.757Z,10.06
2022-10-09T17:40:11.743Z,9.97
2022-10-09T17:42:41.874Z,9.88
2022-10-09T17:45:12.258Z,9.80
2022-10-09T17:47:43.757Z,9.73
2022-10-09T17:50:13.594Z,9.70
2022-10-09T17:52:43.119Z,9.66
2022-10-09T17:55:11.523Z,9.69
2022-10-09T17:57:42.691Z,9.69
2022-10-09T18:00:13.543Z,9.70
2022-10-09T18:02:43.552Z,9.51
2022-10-09T18:05:13.039Z,9.58
2022-10-09T18:07:42.179Z,9.54
2022-10-09T18:10:11.226Z,9.51
2022-10-09T18:12:39.933Z,9.51
2022-10-09T18:15:11.332Z,9.47
2022-10-09T18:17:42.948Z,9.43
2022-10-09T18:20:12.138Z,9.45
2022-10-09T18:22:46.442Z,9.48
2022-10-09T18:25:16.045Z,9.43
2022-10-09T18:27:45.766Z,9.36
2022-10-09T18:30:17.473Z,9.35
2022-10-09T18:32:46.668Z,9.35
2022-10-09T18:35:15.824Z,9.35
2022-10-09T18:37:46.221Z,9.34
2022-10-09T18:40:15.961Z,9.20
2022-10-09T18:42:45.298Z,9.28
2022-10-09T18:45:17.835Z,9.26
2022-10-09T18:47:47.660Z,9.17
2022-10-09T18:50:19.775Z,9.16
2022-10-09T18:52:54.101Z,9.14
2022-10-09T18:55:25.196Z,9.10
2022-10-09T18:57:56.207Z,9.09
2022-10-09T19:00:27.329Z,9.08
2022-10-09T19:02:56.477Z,9.06
2022-10-09T19:05:28.804Z,8.98
2022-10-09T19:07:58.356Z,8.96
2022-10-09T19:10:27.122Z,8.93
2022-10-09T19:12:59.017Z,8.96
2022-10-09T19:15:42.247Z,8.96
2022-10-09T19:18:21.110Z,8.98
2022-10-09T19:20:55.706Z,8.96
2022-10-09T19:23:33.142Z,8.93
2022-10-09T19:26:06.512Z,8.84
2022-10-09T19:28:51.634Z,8.86
2022-10-09T19:31:25.670Z,8.79
2022-10-09T19:33:56.733Z,8.75
2022-10-09T19:36:33.155Z,8.79
2022-10-09T19:39:10.668Z,8.80
2022-10-09T19:41:50.096Z,8.69
2022-10-09T19:44:24.924Z,8.76
2022-10-09T19:46:59.684Z,8.77
2022-10-09T19:49:32.869Z,8.75
2022-10-09T19:52:01.886Z,8.71
2022-10-09T19:54:30.460Z,8.60
2022-10-09T19:56:59.155Z,8.55
2022-10-09T19:59:29.099Z,8.51
2022-10-09T20:01:59.245Z,8.52
2022-10-09T20:04:28.438Z,8.47
2022-10-09T20:06:56.901Z,8.49
2022-10-09T20:09:25.616Z,8.48
2022-10-09T20:11:54.296Z,8.48
2022-10-09T20:14:22.957Z,8.48
2022-10-09T20:16:51.331Z,8.49
2022-10-09T20:19:21.279Z,8.49
2022-10-09T20:21:49.551Z,8.41
2022-10-09T20:24:18.571Z,8.31
2022-10-09T20:26:47.314Z,8.30
2022-10-09T20:29:16.473Z,8.27
2022-10-09T20:31:47.729Z,8.22
2022-10-09T20:34:17.253Z,8.19
2022-10-09T20:36:47.029Z,8.26
2022-10-09T20:39:16.331Z,8.27
2022-10-09T20:41:45.008Z,8.22
2022-10-09T20:44:13.696Z,8.20
2022-10-09T20:46:42.862Z,8.20
2022-10-09T20:49:13.561Z,8.11
2022-10-09T20:51:42.023Z,8.13
2022-10-09T20:54:18.032Z,8.16
2022-10-09T20:56:47.203Z,8.13
2022-10-09T20:59:16.205Z,8.12
2022-10-09T21:01:44.771Z,8.12
2022-10-09T21:04:14.778Z,8.12
2022-10-09T21:06:44.603Z,8.05
2022-10-09T21:09:15.206Z,7.98
2022-10-09T21:11:46.106Z,7.98
2022-10-09T21:14:16.005Z,7.95
2022-10-09T21:16:44.849Z,7.93
2022-10-09T21:19:14.227Z,7.91
2022-10-09T21:21:45.321Z,7.95
2022-10-09T21:24:17.718Z,7.94
2022-10-09T21:26:47.510Z,7.93
2022-10-09T21:29:16.288Z,7.91
2022-10-09T21:31:44.732Z,7.97
2022-10-09T21:34:13.230Z,7.94
2022-10-09T21:37:08.496Z,7.94
2022-10-09T21:39:33.355Z,7.97
2022-10-09T21:42:02.031Z,7.94
2022-10-09T21:44:30.538Z,7.91
2022-10-09T21:46:59.052Z,7.90
2022-10-09T21:49:28.959Z,7.86
2022-10-09T21:51:58.573Z,7.74
2022-10-09T21:54:27.414Z,7.82
2022-10-09T21:56:57.095Z,7.83
2022-10-09T21:59:25.504Z,7.84
2022-10-09T22:01:54.276Z,7.83
2022-10-09T22:04:23.338Z,7.82
2022-10-09T22:06:51.957Z,7.84
2022-10-09T22:09:20.561Z,7.89
2022-10-09T22:11:49.179Z,7.91
2022-10-09T22:14:18.937Z,7.91
2022-10-09T22:16:47.523Z,7.91
2022-10-09T22:19:16.180Z,7.82
2022-10-09T22:21:44.472Z,7.75
2022-10-09T22:24:13.094Z,7.72
2022-10-09T22:26:41.568Z,7.68
2022-10-09T22:29:10.377Z,7.65
2022-10-09T22:31:40.289Z,7.55
2022-10-09T22:34:08.641Z,7.52
2022-10-09T22:36:37.672Z,7.52
2022-10-09T22:39:07.780Z,7.54
2022-10-09T22:41:36.900Z,7.60
2022-10-09T22:44:06.869Z,7.57
2022-10-09T22:46:36.581Z,7.56
2022-10-09T22:49:06.795Z,7.59
2022-10-09T22:51:35.782Z,7.60
2022-10-09T22:54:04.370Z,7.58
2022-10-09T22:56:34.433Z,7.57
2022-10-09T22:59:03.037Z,7.58
2022-10-09T23:01:34.942Z,7.57
2022-10-09T23:04:07.455Z,7.54
2022-10-09T23:06:36.367Z,7.53
2022-10-09T23:09:06.364Z,7.55
2022-10-09T23:11:34.760Z,7.58
2022-10-09T23:14:03.898Z,7.55
2022-10-09T23:16:32.969Z,7.58
2022-10-09T23:19:06.404Z,7.56
2022-10-09T23:21:37.811Z,7.55
2022-10-09T23:24:06.752Z,7.44
2022-10-09T23:26:36.645Z,7.44
2022-10-09T23:29:07.350Z,7.47
2022-10-09T23:31:36.173Z,7.45
2022-10-09T23:34:05.054Z,7.42
2022-10-09T23:36:33.979Z,7.44
2022-10-09T23:39:06.637Z,7.46
2022-10-09T23:41:35.452Z,7.45
2022-10-09T23:44:04.042Z,7.39
2022-10-09T23:46:34.240Z,7.42
2022-10-09T23:49:02.782Z,7.30
2022-10-09T23:51:31.753Z,7.28
2022-10-09T23:54:00.310Z,7.33
2022-10-09T23:56:32.249Z,7.41
2022-10-09T23:59:01.949Z,7.37
